Terminal Aerodrome Forecast
Issued by NWS Cleveland, OH

Home | Current Version | Previous Version | Text Only | Print | Product List | Glossary On
Versions: 1 2 3 4 5 6 7 8 9 10 11 12 13 14
000
FTUS41 KCLE 162004 AAA
TAFTOL
TAF AMD
KTOL 162004Z 1620/1718 08006KT 5SM BR OVC015
      TEMPO 1621/1623 2SM -RA BKN008
     FM162300 10005KT 2SM -RA BR OVC008
     FM170500 12005KT 1SM -RA BR OVC004
     FM171400 20010KT 2SM BR OVC004=

USA.gov is the U.S. government's official web portal to all federal, state and local government web resources and services.